Time;durP1;ratioP1;P1;durP2;ratioP2;P2;SDS_P1;SDS_P2;PMS_P1;PMS_P2;Temp;Humidity;BMP_temperature;BMP_pressure;BME280_temperature;BME280_humidity;BME280_pressure;Samples;Min_cycle;Max_cycle;Signal;HPM_P1;HPM_P2
2022/12/25 00:01:12;;;;;;;12.45;4.40;;;;;;;7.78;91.11;100726.66;5071991;28;20373;-75
2022/12/25 00:04:15;;;;;;;10.52;2.95;;;;;;;7.71;91.50;100729.56;5071754;28;20043;-74
2022/12/25 00:07:19;;;;;;;;;;;;;;;7.23;93.97;100724.31;5059692;28;20675;-74
2022/12/25 00:10:22;;;;;;;21.17;6.07;;;;;;;7.28;95.13;100720.72;5071790;28;19922;-74
2022/12/25 00:13:26;;;;;;;9.90;3.17;;;;;;;7.57;93.67;100719.69;5072079;28;20078;-74
2022/12/25 00:16:29;;;;;;;12.90;3.38;;;;;;;7.61;93.31;100718.66;5075176;28;20097;-74
2022/12/25 00:19:33;;;;;;;;;;;;;;;7.72;92.63;100719.09;5075680;28;20146;-74
2022/12/25 00:22:35;;;;;;;12.73;3.80;;;;;;;7.72;92.57;100720.84;5075299;28;20004;-74
2022/12/25 00:25:40;;;;;;;11.05;4.10;;;;;;;7.78;92.52;100721.47;5075036;28;20507;-74
2022/12/25 00:28:44;;;;;;;15.15;3.53;;;;;;;7.81;92.35;100725.72;5075001;28;20120;-74
2022/12/25 00:31:47;;;;;;;;;;;;;;;7.80;92.40;100726.63;5075491;28;20059;-74
2022/12/25 00:34:51;;;;;;;10.20;3.67;;;;;;;7.85;92.14;100724.72;5075025;28;20107;-74
2022/12/25 00:37:54;;;;;;;;;;;;;;;7.84;92.11;100725.59;5075604;28;20052;-74
2022/12/25 00:40:57;;;;;;;10.73;2.95;;;;;;;7.85;91.92;100714.31;5074642;28;19970;-74
2022/12/25 00:44:00;;;;;;;10.23;2.70;;;;;;;7.77;92.34;100705.91;5074723;28;20114;-74
2022/12/25 00:47:03;;;;;;;9.35;3.85;;;;;;;7.79;92.38;100711.94;5074765;28;20512;-74
2022/12/25 00:50:07;;;;;;;;;;;;;;;7.82;92.22;100707.44;5074942;28;20044;-74
2022/12/25 00:53:10;;;;;;;11.25;2.80;;;;;;;7.72;93.01;100702.63;5074615;28;19922;-74
2022/12/25 00:56:13;;;;;;;9.85;2.97;;;;;;;7.58;93.88;100703.16;5074449;28;20094;-74
2022/12/25 00:59:16;;;;;;;;;;;;;;;7.65;93.29;100699.41;5075359;28;20398;-74
2022/12/25 01:02:22;;;;;;;10.20;3.65;;;;;;;7.39;94.94;100696.00;5074290;28;20014;-74
2022/12/25 01:05:25;;;;;;;9.40;2.75;;;;;;;7.58;94.34;100704.00;5062255;28;20078;-74
2022/12/25 01:08:31;;;;;;;9.10;2.80;;;;;;;7.39;94.80;100708.19;5062053;28;20061;-74
2022/12/25 01:11:35;;;;;;;11.45;2.45;;;;;;;7.50;95.12;100721.66;5074328;28;20098;-73
2022/12/25 01:14:37;;;;;;;;;;;;;;;7.67;93.88;100718.44;5074714;28;20106;-74
2022/12/25 01:17:41;;;;;;;12.43;3.40;;;;;;;7.68;93.99;100728.75;5074500;28;19919;-74
2022/12/25 01:20:44;;;;;;;8.90;2.50;;;;;;;7.70;93.87;100726.13;5074032;28;20094;-74
2022/12/25 01:23:52;;;;;;;12.63;4.55;;;;;;;7.71;93.74;100732.16;5074303;28;20086;-74
2022/12/25 01:26:55;;;;;;;10.48;2.85;;;;;;;7.72;94.03;100726.91;5082341;28;20072;-74
2022/12/25 01:29:58;;;;;;;11.18;5.05;;;;;;;7.73;93.51;100722.56;5093095;28;20093;-74
2022/12/25 01:33:02;;;;;;;9.15;2.72;;;;;;;7.82;93.09;100724.81;5092913;28;20097;-74
2022/12/25 01:36:19;;;;;;;6.78;2.03;;;;;;;7.80;93.36;100731.84;5094385;28;20174;-74
2022/12/25 01:39:22;;;;;;;10.68;3.17;;;;;;;7.61;94.63;100729.06;5093423;28;20047;-74
2022/12/25 01:42:27;;;;;;;7.65;2.38;;;;;;;7.69;94.59;100727.88;5093586;28;20054;-74
2022/12/25 01:45:39;;;;;;;12.52;2.80;;;;;;;7.65;94.89;100728.88;5093995;28;20043;-74
2022/12/25 01:48:42;;;;;;;8.70;2.47;;;;;;;7.69;94.09;100727.88;5094231;28;20042;-74
2022/12/25 01:51:48;;;;;;;;;;;;;;;7.77;94.37;100724.13;5081667;28;20051;-74
2022/12/25 01:54:56;;;;;;;10.30;2.35;;;;;;;7.74;94.31;100729.47;5093562;28;19934;-74
2022/12/25 01:58:00;;;;;;;9.68;2.10;;;;;;;7.67;94.79;100729.69;5093571;28;20063;-74
2022/12/25 02:01:03;;;;;;;11.43;2.70;;;;;;;7.58;95.65;100732.63;5093574;28;20054;-74
2022/12/25 02:04:37;;;;;;;;;;;;;;;7.69;95.34;100727.03;5094395;28;20127;-74
2022/12/25 02:07:41;;;;;;;12.70;3.35;;;;;;;7.75;94.92;100716.38;5093450;28;19919;-74
2022/12/25 02:10:45;;;;;;;14.35;4.00;;;;;;;7.56;96.52;100710.16;5093419;28;20073;-74
2022/12/25 02:13:48;;;;;;;12.60;3.38;;;;;;;7.50;97.25;100716.47;5093424;28;20511;-73
2022/12/25 02:16:58;;;;;;;;;;;;;;;7.62;96.56;100709.94;5094123;28;20075;-73
2022/12/25 02:20:20;;;;;;;9.40;2.83;;;;;;;7.72;96.08;100700.03;5093232;28;19919;-73
2022/12/25 02:23:37;;;;;;;15.65;4.38;;;;;;;7.53;96.82;100708.53;5092954;28;20067;-73
2022/12/25 02:27:00;;;;;;;10.90;2.45;;;;;;;7.71;96.23;100703.53;5092679;28;20093;-74
2022/12/25 02:30:06;;;;;;;16.33;3.05;;;;;;;7.79;95.27;100696.31;5093040;28;20054;-74
2022/12/25 02:37:09;;;;;;;10.48;2.80;;;;;;;7.63;96.29;100690.81;5092112;28;20065;-74
2022/12/25 02:40:18;;;;;;;10.05;2.80;;;;;;;7.43;97.41;100704.56;5093160;28;20043;-74
2022/12/25 03:07:37;;;;;;;13.38;2.35;;;;;;;7.82;95.24;100728.28;5091113;28;20409;-74
2022/12/25 03:17:32;;;;;;;12.60;2.55;;;;;;;7.82;95.17;100722.22;5092205;28;20425;-74
2022/12/25 03:27:25;;;;;;;11.98;3.63;;;;;;;7.76;95.90;100709.44;5066506;28;20043;-74
2022/12/25 04:38:41;;;;;;;7.68;2.58;;;;;;;7.37;98.77;100655.34;5095279;28;20047;-74
2022/12/25 04:41:44;;;;;;;10.48;3.05;;;;;;;7.35;99.38;100663.22;5094545;28;20125;-74
2022/12/25 04:44:47;;;;;;;9.45;2.90;;;;;;;7.38;98.85;100662.25;5094999;28;20043;-74
2022/12/25 04:47:51;;;;;;;;;;;;;;;7.45;98.05;100663.72;5095554;28;20074;-74
2022/12/25 04:50:53;;;;;;;13.63;4.43;;;;;;;7.57;97.75;100675.44;5095527;28;19919;-74
2022/12/25 04:53:57;;;;;;;;;;;;;;;7.60;97.31;100670.13;4740359;28;9999940;-74
2022/12/25 04:57:00;;;;;;;9.55;2.88;;;;;;;7.55;97.52;100672.03;5091493;28;19919;-74
2022/12/25 05:00:04;;;;;;;;;;;;;;;7.61;97.47;100677.84;5090933;28;20046;-74
2022/12/25 05:03:08;;;;;;;9.95;2.88;;;;;;;7.64;97.07;100677.75;5091170;28;20343;-74
2022/12/25 05:06:11;;;;;;;13.02;3.20;;;;;;;7.60;97.13;100673.56;5090889;28;20543;-74
2022/12/25 05:09:14;;;;;;;;;;;;;;;7.75;96.23;100689.50;5091518;28;20051;-74
2022/12/25 05:12:17;;;;;;;9.18;2.75;;;;;;;7.72;96.03;100680.03;5091093;28;19973;-74
2022/12/25 05:15:21;;;;;;;7.13;2.03;;;;;;;7.67;96.27;100682.84;5091062;28;20085;-74
2022/12/25 05:18:24;;;;;;;;;;;;;;;7.63;96.58;100676.06;5090968;28;20091;-74
2022/12/25 05:21:28;;;;;;;10.88;2.80;;;;;;;7.65;96.59;100665.56;5090910;28;19919;-73
2022/12/25 05:24:31;;;;;;;;;;;;;;;7.75;96.57;100679.09;5091314;28;20057;-73
2022/12/25 05:27:34;;;;;;;8.00;2.57;;;;;;;7.49;97.31;100680.91;5090930;28;19985;-74
2022/12/25 05:30:37;;;;;;;;;;;;;;;7.37;98.98;100665.75;5090963;28;20062;-74
2022/12/25 05:33:40;;;;;;;12.67;3.00;;;;;;;7.59;98.36;100663.19;5090727;28;19923;-74
2022/12/25 05:36:44;;;;;;;9.85;2.80;;;;;;;7.68;97.05;100657.66;5090343;28;20359;-75
2022/12/25 05:39:47;;;;;;;13.05;2.90;;;;;;;7.62;96.41;100655.28;5090696;28;20081;-74
2022/12/25 05:42:50;;;;;;;13.85;3.03;;;;;;;7.68;96.91;100655.03;5089893;28;20101;-74
2022/12/25 05:45:53;;;;;;;;;;;;;;;7.73;96.62;100649.69;5091223;28;20136;-74
2022/12/25 05:48:57;;;;;;;12.45;2.13;;;;;;;7.64;96.65;100643.91;5090428;28;19970;-74
2022/12/25 05:52:00;;;;;;;12.15;2.70;;;;;;;7.71;96.48;100651.50;5090099;28;20104;-75
2022/12/25 05:55:04;;;;;;;;;;;;;;;7.74;96.42;100643.56;5090561;28;20404;-75
2022/12/25 05:58:11;;;;;;;9.38;2.90;;;;;;;7.75;96.23;100650.44;5090330;28;19918;-75
2022/12/25 06:01:22;;;;;;;10.35;2.47;;;;;;;7.77;96.24;100648.66;5076812;28;20062;-74
2022/12/25 06:04:28;;;;;;;8.95;2.92;;;;;;;7.74;96.24;100640.97;5076758;28;20528;-74
2022/12/25 06:07:31;;;;;;;12.20;3.08;;;;;;;7.74;96.48;100640.97;5089392;28;20086;-74
2022/12/25 06:10:35;;;;;;;10.98;3.35;;;;;;;7.56;97.27;100648.56;5065098;28;20075;-74
2022/12/25 06:13:38;;;;;;;;;;;;;;;7.52;98.29;100646.97;5065581;28;20051;-73
2022/12/25 06:16:41;;;;;;;15.15;3.63;;;;;;;7.67;97.75;100635.16;5064852;28;19927;-73
2022/12/25 06:19:44;;;;;;;;;;;;;;;7.70;97.12;100635.03;5065117;28;20051;-75
2022/12/25 06:22:47;;;;;;;12.32;2.92;;;;;;;7.75;96.58;100634.84;5084558;28;20015;-74
2022/12/25 06:25:50;;;;;;;;;;;;;;;7.78;96.74;100637.31;5089010;28;20105;-74
2022/12/25 06:28:54;;;;;;;8.73;2.43;;;;;;;7.74;96.85;100625.34;5088907;28;20441;-74
2022/12/25 06:31:57;;;;;;;12.60;3.17;;;;;;;7.80;96.60;100633.75;5065176;28;20290;-74
2022/12/25 06:35:01;;;;;;;12.65;2.95;;;;;;;7.84;95.97;100621.47;5067666;28;20048;-74
2022/12/25 06:38:04;;;;;;;12.38;3.40;;;;;;;7.72;96.93;100624.53;5067863;28;20048;-74
2022/12/25 06:41:11;;;;;;;7.93;3.55;;;;;;;7.74;96.82;100626.19;5068153;28;20097;-74
2022/12/25 06:44:14;;;;;;;10.85;2.92;;;;;;;7.75;96.71;100624.44;5068448;28;20047;-74
2022/12/25 06:47:17;;;;;;;;;;;;;;;7.80;96.45;100614.69;5087446;28;20132;-74
2022/12/25 06:50:20;;;;;;;9.63;2.97;;;;;;;7.81;96.02;100611.16;5079798;28;19943;-74
2022/12/25 06:53:24;;;;;;;13.77;3.70;;;;;;;7.72;96.57;100616.75;5066314;28;20071;-74
2022/12/25 06:56:29;;;;;;;9.15;4.22;;;;;;;7.59;97.74;100621.56;5066706;28;20043;-75
2022/12/25 06:59:32;;;;;;;17.27;6.50;;;;;;;7.50;98.79;100638.41;5053830;28;20097;-75
2022/12/25 07:02:37;;;;;;;;;;;;;;;7.54;98.68;100632.16;5068556;28;20042;-73
2022/12/25 07:05:40;;;;;;;12.25;5.13;;;;;;;7.73;98.05;100623.66;5067560;28;19924;-73
2022/12/25 07:08:43;;;;;;;;;;;;;;;7.68;97.53;100600.41;5067995;28;20047;-73
2022/12/25 07:11:46;;;;;;;5.72;2.95;;;;;;;7.76;97.05;100593.16;5067413;28;20427;-73
2022/12/25 07:14:53;;;;;;;8.15;2.90;;;;;;;7.77;96.83;100588.78;5066444;28;20110;-74
2022/12/25 07:17:56;;;;;;;9.90;2.95;;;;;;;7.72;97.31;100591.56;5065244;28;20062;-74
2022/12/25 07:21:17;;;;;;;11.57;3.58;;;;;;;7.68;97.74;100616.84;5053583;28;20513;-74
2022/12/25 07:24:25;;;;;;;10.13;4.13;;;;;;;7.73;97.97;100605.44;5053710;28;20047;-74
2022/12/25 07:27:29;;;;;;;8.55;3.08;;;;;;;7.77;97.48;100599.19;5067096;28;20284;-74
2022/12/25 07:30:32;;;;;;;;;;;;;;;7.74;97.69;100588.91;5067449;28;20066;-73
2022/12/25 07:33:35;;;;;;;14.98;6.60;;;;;;;7.71;97.50;100589.03;5077593;28;19923;-74
2022/12/25 07:36:39;;;;;;;26.83;5.90;;;;;;;7.68;97.54;100567.41;5081985;28;20127;-74
2022/12/25 07:39:42;;;;;;;17.10;4.85;;;;;;;7.72;97.82;100580.28;5078822;28;20055;-73
2022/12/25 07:42:45;;;;;;;18.60;5.05;;;;;;;7.89;97.12;100591.75;5085522;28;20047;-74
2022/12/25 07:45:58;;;;;;;13.85;3.80;;;;;;;8.04;96.12;100582.47;5086689;28;20105;-74
2022/12/25 07:49:01;;;;;;;11.75;4.07;;;;;;;8.08;95.55;100559.75;5065990;28;20097;-74
2022/12/25 07:52:04;;;;;;;10.60;3.50;;;;;;;8.13;95.06;100576.88;5065193;28;20048;-73
2022/12/25 07:55:08;;;;;;;14.38;4.70;;;;;;;8.02;95.68;100573.88;5066775;28;20056;-75
2022/12/25 07:58:12;;;;;;;16.67;5.28;;;;;;;7.72;97.69;100565.53;5055235;28;20109;-76
2022/12/25 08:01:19;;;;;;;10.75;3.60;;;;;;;7.90;97.10;100576.97;5070208;28;20626;-75
2022/12/25 08:04:23;;;;;;;13.88;3.40;;;;;;;8.02;96.12;100573.88;5068420;28;20102;-75
2022/12/25 08:07:27;;;;;;;12.77;5.07;;;;;;;7.71;97.59;100573.41;5053451;28;20073;-75
2022/12/25 08:10:31;;;;;;;18.63;4.50;;;;;;;7.51;99.30;100562.03;5054198;28;20043;-75
2022/12/25 08:13:37;;;;;;;16.95;6.05;;;;;;;7.61;99.78;100562.50;5080216;28;20047;-74
2022/12/25 08:16:42;;;;;;;8.43;4.15;;;;;;;7.84;98.89;100578.06;5085546;28;20039;-75
2022/12/25 08:19:45;;;;;;;12.93;4.97;;;;;;;7.98;97.72;100572.31;5065912;28;20547;-75
2022/12/25 08:22:54;;;;;;;6.57;3.42;;;;;;;8.02;97.16;100573.88;5067441;28;20410;-77
2022/12/25 08:26:15;;;;;;;13.02;3.88;;;;;;;8.24;96.19;100571.22;5067005;28;20047;-76
2022/12/25 08:29:18;;;;;;;23.00;11.80;;;;;;;8.05;96.77;100559.88;5043387;28;20047;-76
2022/12/25 08:32:22;;;;;;;17.02;9.52;;;;;;;8.10;96.74;100547.50;5065056;28;20046;-76
2022/12/25 08:35:25;;;;;;;21.15;12.48;;;;;;;8.09;96.69;100554.47;5066241;28;20037;-76
2022/12/25 08:38:29;;;;;;;;;;;;;;;8.22;96.62;100546.16;5068167;28;20101;-75
2022/12/25 08:41:35;;;;;;;15.07;3.72;;;;;;;8.29;95.88;100558.00;5068818;28;20383;-75
2022/12/25 08:44:38;;;;;;;8.07;3.15;;;;;;;8.41;95.55;100554.91;5069278;28;20055;-76
2022/12/25 08:47:44;;;;;;;12.15;3.55;;;;;;;8.40;95.24;100548.00;5069900;28;20047;-73
2022/12/25 08:50:51;;;;;;;14.13;4.40;;;;;;;8.40;95.11;100553.22;5074816;28;20039;-73
2022/12/25 08:53:58;;;;;;;12.27;4.30;;;;;;;7.93;98.17;100558.63;5069993;28;20129;-74
2022/12/25 08:57:02;;;;;;;13.05;6.07;;;;;;;7.76;100.00;100548.91;5069559;28;20105;-74
2022/12/25 09:00:06;;;;;;;11.60;5.93;;;;;;;8.00;99.70;100549.63;5068974;28;20058;-75
2022/12/25 09:03:09;;;;;;;14.40;5.32;;;;;;;8.19;98.45;100556.69;5071030;28;20044;-74
2022/12/25 09:06:13;;;;;;;;;;;;;;;8.36;97.25;100551.63;5070008;28;20587;-75
2022/12/25 09:09:17;;;;;;;14.95;5.35;;;;;;;8.34;97.02;100553.44;5069176;28;20360;-74
2022/12/25 09:12:20;;;;;;;14.40;4.57;;;;;;;8.40;97.07;100542.81;5069261;28;20035;-74
2022/12/25 09:15:23;;;;;;;;;;;;;;;8.45;96.92;100550.41;5068158;28;20123;-73
2022/12/25 09:18:27;;;;;;;11.77;3.85;;;;;;;8.40;97.10;100553.22;5088696;28;20506;-73
2022/12/25 09:21:30;;;;;;;;;;;;;;;8.40;96.67;100558.44;5090142;28;20042;-74
2022/12/25 09:24:33;;;;;;;34.60;22.75;;;;;;;8.43;96.79;100557.47;5088925;28;20007;-74
2022/12/25 09:27:36;;;;;;;;;;;;;;;8.48;96.54;100545.06;5089110;28;20455;-75
2022/12/25 09:30:39;;;;;;;12.75;4.40;;;;;;;8.55;96.01;100544.75;5089805;28;20435;-74
2022/12/25 09:33:43;;;;;;;;;;;;;;;8.49;95.92;100539.81;5090160;28;20123;-73
2022/12/25 09:39:57;;;;;;;13.73;6.10;;;;;;;8.50;96.01;100525.00;4338494;26;20040;-87
2022/12/25 09:43:21;;;;;;;15.43;5.13;;;;;;;8.67;96.00;100514.69;5052736;28;20166;-89
2022/12/25 09:46:49;;;;;;;16.15;4.13;;;;;;;8.60;95.68;100506.28;5051473;28;20047;-92
2022/12/25 09:49:59;;;;;;;9.98;3.80;;;;;;;8.50;96.42;100494.59;5072529;28;20162;-89
2022/12/25 09:53:15;;;;;;;13.85;4.95;;;;;;;8.54;96.55;100498.72;5060837;28;20052;-87
2022/12/25 09:56:26;;;;;;;11.43;5.78;;;;;;;8.51;97.18;100490.22;5053321;28;20059;-87
2022/12/25 09:59:29;;;;;;;12.75;6.88;;;;;;;8.41;97.91;100491.53;5055415;28;20072;-86
2022/12/25 10:02:45;;;;;;;19.00;7.68;;;;;;;8.35;98.42;100492.59;5046912;28;20408;-83
2022/12/25 10:06:06;;;;;;;11.55;6.03;;;;;;;8.39;98.51;100494.19;5050572;28;20044;-83
2022/12/25 10:09:26;;;;;;;17.08;9.60;;;;;;;8.27;99.68;100489.50;5037739;28;20060;-81
2022/12/25 10:12:40;;;;;;;13.00;5.30;;;;;;;8.38;99.41;100497.72;5050749;28;20137;-86
2022/12/25 10:15:59;;;;;;;11.90;5.65;;;;;;;8.50;98.53;100493.75;5053276;28;20044;-84
2022/12/25 10:19:04;;;;;;;22.02;7.65;;;;;;;8.53;98.19;100497.06;5050427;28;20047;-83
2022/12/25 10:22:25;;;;;;;13.20;7.22;;;;;;;8.54;98.03;100501.34;5061385;28;20774;-85
2022/12/25 10:25:30;;;;;;;18.05;10.18;;;;;;;8.54;98.18;100497.88;5038536;28;20574;-85
2022/12/25 10:28:42;;;;;;;18.58;10.18;;;;;;;8.54;98.26;100477.88;5053004;28;20047;-84
2022/12/25 10:31:47;;;;;;;16.27;9.70;;;;;;;8.73;97.98;100467.47;5032095;28;20088;-85
2022/12/25 10:34:51;;;;;;;13.80;7.53;;;;;;;8.77;97.73;100471.63;5044780;28;20116;-85
2022/12/25 10:38:04;;;;;;;17.33;7.53;;;;;;;8.66;98.28;100470.44;5029665;28;20106;-85
2022/12/25 10:41:31;;;;;;;14.10;6.53;;;;;;;8.42;100.00;100472.38;5049293;28;20727;-85
2022/12/25 10:44:38;;;;;;;16.40;6.15;;;;;;;8.64;99.42;100456.63;5048975;28;20079;-85
2022/12/25 10:47:41;;;;;;;17.50;6.05;;;;;;;8.75;98.78;100449.19;5056836;28;20039;-86
2022/12/25 10:50:45;;;;;;;15.77;7.68;;;;;;;8.89;97.90;100457.19;5038756;28;20044;-86
2022/12/25 10:53:49;;;;;;;20.98;12.13;;;;;;;8.64;99.92;100454.84;5045765;28;20527;-87
2022/12/25 10:57:00;;;;;;;14.15;8.40;;;;;;;8.82;100.00;100450.56;5054585;28;20052;-87
2022/12/25 11:00:05;;;;;;;14.10;8.38;;;;;;;8.88;99.38;100441.63;5053090;28;20183;-85
2022/12/25 11:03:23;;;;;;;17.83;7.30;;;;;;;8.95;99.09;100441.25;5045968;28;20109;-86
2022/12/25 11:06:31;;;;;;;11.85;6.18;;;;;;;8.96;98.87;100432.50;5051890;28;20182;-86
2022/12/25 11:09:39;;;;;;;10.30;4.90;;;;;;;9.01;100.00;100427.94;5037260;28;20039;-88
2022/12/25 11:12:45;;;;;;;11.65;5.60;;;;;;;8.88;100.00;100421.63;5055631;28;20395;-86
2022/12/25 11:16:24;;;;;;;17.20;5.22;;;;;;;8.87;100.00;100419.06;5053751;28;20056;-94
2022/12/25 11:19:31;;;;;;;14.48;4.22;;;;;;;8.89;100.00;100425.91;5055045;28;20055;-93
2022/12/25 11:22:42;;;;;;;11.65;4.45;;;;;;;8.87;100.00;100417.31;5041275;28;20098;-90
2022/12/25 11:26:21;;;;;;;9.50;3.85;;;;;;;8.92;100.00;100417.94;5050595;28;20126;-90
2022/12/25 11:29:51;;;;;;;13.77;4.90;;;;;;;9.11;100.00;100417.06;5046268;28;20048;-88
2022/12/25 11:33:13;;;;;;;13.82;4.50;;;;;;;9.07;100.00;100409.38;5055447;28;20476;-87
2022/12/25 11:37:39;;;;;;;13.77;3.85;;;;;;;9.23;99.57;100374.75;5053854;28;20582;-87
2022/12/25 11:40:51;;;;;;;13.32;3.88;;;;;;;9.29;99.35;100332.69;4953887;29;20144;-89
2022/12/25 11:44:34;;;;;;;8.18;3.53;;;;;;;9.16;100.00;100302.94;4972893;28;20561;-88
2022/12/25 11:47:53;;;;;;;13.35;4.57;;;;;;;9.17;100.00;100338.53;5032378;28;20049;-87
2022/12/25 11:51:02;;;;;;;24.23;13.52;;;;;;;9.22;100.00;100328.69;5026987;28;20099;-87
2022/12/25 11:54:09;;;;;;;25.38;14.10;;;;;;;9.35;100.00;100335.00;5036634;28;20076;-87
2022/12/25 12:02:37;;;;;;;20.17;8.25;;;;;;;9.44;100.00;100313.63;5040203;28;20040;-89
2022/12/25 12:06:17;;;;;;;15.50;5.90;;;;;;;9.81;100.00;100321.34;5035312;28;20036;-88
2022/12/25 12:09:56;;;;;;;13.25;7.35;;;;;;;9.80;99.71;100328.34;5034105;28;20051;-87
2022/12/25 12:13:30;;;;;;;12.30;5.93;;;;;;;9.86;99.75;100320.19;5051198;28;20059;-87
2022/12/25 12:16:37;;;;;;;7.88;4.15;;;;;;;9.97;100.00;100296.94;5055242;28;20337;-87
2022/12/25 12:19:44;;;;;;;8.07;3.65;;;;;;;9.97;100.00;100285.66;5047558;28;20098;-87
2022/12/25 12:22:52;;;;;;;10.95;4.00;;;;;;;9.96;99.89;100279.59;5054621;28;20087;-87
2022/12/25 12:26:07;;;;;;;7.05;4.25;;;;;;;9.84;100.00;100280.25;5046635;28;20103;-87
2022/12/25 12:29:40;;;;;;;11.50;5.82;;;;;;;9.84;100.00;100300.31;5035629;28;20056;-87
2022/12/25 12:32:59;;;;;;;8.45;4.30;;;;;;;9.83;100.00;100296.84;5036655;28;20052;-88
2022/12/25 12:36:11;;;;;;;;;;;;;;;9.84;100.00;100295.91;5035836;28;20060;-87
2022/12/25 12:39:35;;;;;;;19.48;9.55;;;;;;;9.91;100.00;100292.06;5034997;28;19920;-85
2022/12/25 12:42:53;;;;;;;15.77;11.77;;;;;;;9.96;100.00;100297.03;5038016;28;20098;-86
2022/12/25 12:46:49;;;;;;;22.15;11.07;;;;;;;10.03;100.00;100295.78;5046873;28;20040;-86
2022/12/25 12:50:05;;;;;;;11.43;5.88;;;;;;;10.02;100.00;100289.72;5038107;28;20511;-82
2022/12/25 12:53:24;;;;;;;9.68;5.18;;;;;;;9.90;100.00;100293.00;5035150;28;20167;-83
2022/12/25 12:57:00;;;;;;;10.13;4.95;;;;;;;9.92;100.00;100266.78;5034300;28;20092;-84
2022/12/25 13:00:44;;;;;;;9.38;4.30;;;;;;;10.08;100.00;100261.56;5034052;28;20100;-86
2022/12/25 13:03:56;;;;;;;11.90;4.68;;;;;;;9.92;100.00;100277.22;5034592;28;20040;-87
2022/12/25 13:07:42;;;;;;;;;;;;;;;;;;;;;
2022/12/25 13:11:26;;;;;;;14.77;9.93;;;;;;;9.71;100.00;100284.44;5034858;28;20067;-82
2022/12/25 13:14:34;;;;;;;18.52;12.95;;;;;;;9.85;100.00;100276.69;5034309;28;20302;-85
2022/12/25 13:17:38;;;;;;;16.30;9.32;;;;;;;9.88;100.00;100275.69;5034860;28;20094;-85
2022/12/25 13:20:58;;;;;;;34.97;22.65;;;;;;;9.85;100.00;100263.66;5034442;28;20111;-86
2022/12/25 13:24:09;;;;;;;19.55;10.90;;;;;;;9.94;100.00;100264.94;5035025;28;20048;-84
2022/12/25 13:27:27;;;;;;;25.50;16.98;;;;;;;9.87;100.00;100256.59;5024011;28;20052;-85
2022/12/25 13:30:32;;;;;;;;;;;;;;;10.02;100.00;100249.72;5035438;28;20044;-86
2022/12/25 13:34:16;;;;;;;22.00;14.05;;;;;;;9.99;100.00;100248.09;5034458;28;19924;-85
2022/12/25 13:38:00;;;;;;;18.60;13.18;;;;;;;10.10;100.00;100249.28;5034124;28;20512;-88
2022/12/25 13:45:28;;;;;;;18.10;10.70;;;;;;;10.24;100.00;100244.13;5054271;28;20558;-87
2022/12/25 13:48:56;;;;;;;19.63;8.15;;;;;;;10.16;100.00;100241.09;5054196;28;20044;-86
2022/12/25 13:52:33;;;;;;;15.90;9.57;;;;;;;10.30;100.00;100242.97;5053282;28;20095;-87
2022/12/25 13:59:59;;;;;;;9.00;6.00;;;;;;;10.38;100.00;100223.34;5009466;28;20490;-69
2022/12/25 14:03:13;;;;;;;9.70;6.22;;;;;;;10.42;100.00;100235.28;5012740;28;20045;-68
2022/12/25 14:06:25;;;;;;;8.48;5.45;;;;;;;10.33;100.00;100242.81;5011829;28;20089;-69
2022/12/25 14:09:30;;;;;;;6.60;3.88;;;;;;;10.48;100.00;100242.78;4989781;28;20045;-69
2022/12/25 14:12:33;;;;;;;52.17;31.83;;;;;;;10.43;100.00;100237.00;5013764;28;20104;-68
2022/12/25 14:15:38;;;;;;;22.98;15.57;;;;;;;10.54;100.00;100244.22;5013722;28;20121;-69
2022/12/25 14:19:27;;;;;;;14.63;10.35;;;;;;;10.53;100.00;100246.91;5013679;28;20068;-68
2022/12/25 14:22:32;;;;;;;9.90;6.45;;;;;;;10.54;99.59;100243.38;5013595;28;20049;-68
2022/12/25 14:25:45;;;;;;;24.00;11.10;;;;;;;10.56;100.00;100251.97;5013490;28;20563;-68
2022/12/25 14:28:56;;;;;;;9.88;6.10;;;;;;;10.58;98.55;100263.19;5013278;28;20067;-68
2022/12/25 14:32:03;;;;;;;9.30;5.63;;;;;;;10.76;96.79;100259.53;5012689;28;20048;-69
2022/12/25 14:35:10;;;;;;;17.08;7.65;;;;;;;10.76;97.49;100254.31;5013187;28;20044;-69
2022/12/25 14:38:25;;;;;;;18.42;9.00;;;;;;;10.70;98.08;100254.66;5013378;28;20148;-70
2022/12/25 14:41:35;;;;;;;13.93;7.65;;;;;;;10.49;98.98;100256.69;5013454;28;20080;-69
2022/12/25 14:44:39;;;;;;;8.05;4.72;;;;;;;10.54;98.80;100251.22;5013415;28;20070;-69
2022/12/25 14:47:51;;;;;;;11.45;6.10;;;;;;;10.57;98.96;100254.50;5013018;28;20618;-69
2022/12/25 14:51:02;;;;;;;8.82;5.47;;;;;;;10.63;98.32;100253.31;5013010;28;20121;-69
2022/12/25 14:54:15;;;;;;;10.57;6.47;;;;;;;10.64;98.04;100247.16;5012072;28;20197;-69
2022/12/25 14:57:28;;;;;;;12.52;5.55;;;;;;;10.57;98.44;100253.66;5014746;28;20111;-68
2022/12/25 15:00:35;;;;;;;10.30;4.32;;;;;;;10.52;99.43;100253.06;5032740;28;20053;-73
2022/12/25 15:03:38;;;;;;;6.70;4.75;;;;;;;10.55;98.98;100251.13;5032278;28;20037;-72
2022/12/25 15:06:51;;;;;;;6.35;3.85;;;;;;;10.41;99.74;100256.31;5032575;28;20533;-69
2022/12/25 15:09:55;;;;;;;6.72;3.65;;;;;;;10.46;99.29;100256.88;5032724;28;20068;-70
2022/12/25 15:12:59;;;;;;;12.30;7.00;;;;;;;10.50;98.96;100263.63;5032412;28;20182;-72
2022/12/25 15:16:11;;;;;;;12.30;7.38;;;;;;;10.56;98.66;100265.03;5032567;28;20091;-72
2022/12/25 15:19:28;;;;;;;17.00;10.45;;;;;;;10.53;98.20;100259.97;5032308;28;20064;-69
2022/12/25 15:22:32;;;;;;;15.05;8.48;;;;;;;10.48;99.04;100260.25;5029998;28;20477;-72
2022/12/25 15:25:36;;;;;;;14.95;9.15;;;;;;;10.42;99.02;100269.28;5031379;28;20095;-69
2022/12/25 15:28:39;;;;;;;14.23;8.40;;;;;;;10.35;99.16;100269.72;5031215;28;20183;-69
2022/12/25 15:31:42;;;;;;;12.88;7.28;;;;;;;10.34;99.27;100274.09;5031593;28;20071;-69
2022/12/25 15:34:48;;;;;;;;;;;;;;;10.39;99.00;100276.44;5028324;28;20056;-69
2022/12/25 15:37:51;;;;;;;14.80;6.47;;;;;;;10.31;99.76;100273.44;5031319;28;19920;-69
2022/12/25 15:40:55;;;;;;;9.40;5.57;;;;;;;10.37;99.67;100273.06;5012085;28;20049;-68
2022/12/25 15:43:59;;;;;;;11.27;6.40;;;;;;;10.35;99.22;100264.47;5012218;28;20432;-69
2022/12/25 15:47:03;;;;;;;10.48;4.40;;;;;;;10.30;99.29;100261.28;5011930;28;20044;-70
2022/12/25 15:50:08;;;;;;;11.05;7.20;;;;;;;10.11;100.00;100254.41;5011514;28;20096;-71
2022/12/25 15:53:12;;;;;;;12.88;7.97;;;;;;;10.08;100.00;100246.72;5021609;28;20044;-70
2022/12/25 15:56:16;;;;;;;6.25;4.82;;;;;;;10.09;100.00;100245.00;5031698;28;20536;-68
2022/12/25 15:59:21;;;;;;;6.93;4.82;;;;;;;10.06;100.00;100237.31;5030782;28;20064;-68
2022/12/25 16:02:24;;;;;;;9.00;5.00;;;;;;;10.03;100.00;100235.72;5031666;28;20044;-69
2022/12/25 16:05:28;;;;;;;6.43;4.80;;;;;;;9.95;100.00;100230.88;5030654;28;20060;-69
2022/12/25 16:08:31;;;;;;;6.55;4.32;;;;;;;10.06;100.00;100229.47;5031700;28;20090;-70
2022/12/25 16:11:34;;;;;;;;;;;;;;;9.97;100.00;100223.81;5032242;28;20143;-69
2022/12/25 16:14:37;;;;;;;8.65;4.65;;;;;;;9.88;100.00;100228.69;5031918;28;20412;-70
2022/12/25 16:17:41;;;;;;;6.68;4.40;;;;;;;9.82;100.00;100223.81;5019830;28;20053;-70
2022/12/25 16:20:45;;;;;;;12.98;8.63;;;;;;;9.60;100.00;100234.53;5031719;28;20048;-70
2022/12/25 16:23:49;;;;;;;;;;;;;;;9.73;100.00;100243.41;5032330;28;20406;-70
2022/12/25 16:26:53;;;;;;;21.90;16.42;;;;;;;9.74;100.00;100247.72;5031951;28;19992;-70
2022/12/25 16:29:58;;;;;;;46.90;32.75;;;;;;;9.81;100.00;100256.06;5031711;28;20620;-70
2022/12/25 16:33:02;;;;;;;69.60;47.45;;;;;;;9.77;100.00;100268.44;5031734;28;20100;-70
2022/12/25 16:36:06;;;;;;;272.02;167.75;;;;;;;9.84;100.00;100272.41;5019640;28;20410;-69
2022/12/25 16:39:09;;;;;;;65.32;40.35;;;;;;;9.88;100.00;100268.72;5031673;28;20103;-69
2022/12/25 16:42:13;;;;;;;;;;;;;;;9.78;99.54;100264.91;5032119;28;20524;-70
2022/12/25 16:45:17;;;;;;;27.13;16.13;;;;;;;9.72;99.81;100260.00;5019379;28;19924;-69
2022/12/25 16:48:22;;;;;;;18.83;12.90;;;;;;;9.71;100.00;100248.72;5031592;28;20040;-69
2022/12/25 16:51:25;;;;;;;19.85;12.48;;;;;;;9.68;99.94;100237.59;5031609;28;20099;-69
2022/12/25 16:54:28;;;;;;;;;;;;;;;9.63;99.88;100245.66;5031813;28;20419;-68
2022/12/25 16:57:32;;;;;;;52.23;27.73;;;;;;;9.58;100.00;100247.69;5035024;28;19979;-69